createdAt,value
2018-05-13T00:00:22.537Z,935.40
2018-05-13T00:01:22.519Z,935.39
2018-05-13T00:02:22.537Z,935.39
2018-05-13T00:03:22.552Z,935.41
2018-05-13T00:04:22.694Z,935.44
2018-05-13T00:05:22.604Z,935.46
2018-05-13T00:06:22.601Z,935.49
2018-05-13T00:07:22.609Z,935.48
2018-05-13T00:08:22.649Z,935.46
2018-05-13T00:09:22.813Z,935.42
2018-05-13T00:10:22.666Z,935.42
2018-05-13T00:11:22.666Z,935.43
2018-05-13T00:12:22.692Z,935.40
2018-05-13T00:13:22.731Z,935.45
2018-05-13T00:14:22.812Z,935.44
2018-05-13T00:15:22.740Z,935.43
2018-05-13T00:16:22.767Z,935.43
2018-05-13T00:17:22.761Z,935.40
2018-05-13T00:18:22.777Z,935.43
2018-05-13T00:19:22.936Z,935.41
2018-05-13T00:20:22.804Z,935.45
2018-05-13T00:21:22.822Z,935.49
2018-05-13T00:22:22.838Z,935.45
2018-05-13T00:23:22.871Z,935.48
2018-05-13T00:24:23.015Z,935.49
2018-05-13T00:25:23.085Z,935.49
2018-05-13T00:26:22.920Z,935.46
2018-05-13T00:27:22.935Z,935.48
2018-05-13T00:28:22.916Z,935.49
2018-05-13T00:29:23.085Z,935.48
2018-05-13T00:30:22.980Z,935.50
2018-05-13T00:31:22.974Z,935.48
2018-05-13T00:32:23.014Z,935.56
2018-05-13T00:33:23.022Z,935.51
2018-05-13T00:34:23.136Z,935.54
2018-05-13T00:35:23.051Z,935.54
2018-05-13T00:36:23.252Z,935.56
2018-05-13T00:37:23.059Z,935.56
2018-05-13T00:38:23.100Z,935.61
2018-05-13T00:39:23.189Z,935.59
2018-05-13T00:40:23.105Z,935.62
2018-05-13T00:41:23.140Z,935.62
2018-05-13T00:42:23.126Z,935.62
2018-05-13T00:43:23.142Z,935.63
2018-05-13T00:44:23.286Z,935.65
2018-05-13T00:45:23.185Z,935.63
2018-05-13T00:46:23.216Z,935.62
2018-05-13T00:47:23.203Z,935.67
2018-05-13T00:48:23.216Z,935.64
2018-05-13T00:49:23.408Z,935.63
2018-05-13T00:50:23.248Z,935.63
2018-05-13T00:51:23.287Z,935.61
2018-05-13T00:52:23.278Z,935.62
2018-05-13T00:53:23.313Z,935.63
2018-05-13T00:54:23.482Z,935.64
2018-05-13T00:55:23.320Z,935.62
2018-05-13T00:56:23.335Z,935.64
2018-05-13T00:57:23.356Z,935.65
2018-05-13T00:58:23.367Z,935.62
2018-05-13T00:59:23.529Z,935.65
2018-05-13T01:00:23.417Z,935.68
2018-05-13T01:01:23.404Z,935.69
2018-05-13T01:02:23.422Z,935.70
2018-05-13T01:03:23.442Z,935.75
2018-05-13T01:04:23.475Z,935.76
2018-05-13T01:05:23.614Z,935.75
2018-05-13T01:06:23.478Z,935.77
2018-05-13T01:07:23.526Z,935.75
2018-05-13T01:08:23.534Z,935.76
2018-05-13T01:09:23.524Z,935.73
2018-05-13T01:10:23.537Z,935.74
2018-05-13T01:11:23.701Z,935.76
2018-05-13T01:12:23.593Z,935.74
2018-05-13T01:13:23.610Z,935.72
2018-05-13T01:14:23.624Z,935.77
2018-05-13T01:15:23.637Z,935.74
2018-05-13T01:16:23.782Z,935.78
2018-05-13T01:17:23.639Z,935.78
2018-05-13T01:18:23.677Z,935.77
2018-05-13T01:19:23.670Z,935.80
2018-05-13T01:20:23.713Z,935.76
2018-05-13T01:21:23.827Z,935.78
2018-05-13T01:22:23.741Z,935.82
2018-05-13T01:23:23.756Z,935.81
2018-05-13T01:24:23.748Z,935.83
2018-05-13T01:25:23.751Z,935.82
2018-05-13T01:26:23.929Z,935.84
2018-05-13T01:27:23.784Z,935.81
2018-05-13T01:28:23.803Z,935.81
2018-05-13T01:29:23.819Z,935.85
2018-05-13T01:30:23.859Z,935.86
2018-05-13T01:31:23.945Z,935.83
2018-05-13T01:32:23.867Z,935.83
2018-05-13T01:33:23.883Z,935.85
2018-05-13T01:34:23.890Z,935.84
2018-05-13T01:35:23.901Z,935.85
2018-05-13T01:36:24.011Z,935.86
2018-05-13T01:37:23.962Z,935.85
2018-05-13T01:38:23.977Z,935.84
2018-05-13T01:39:23.959Z,935.85
2018-05-13T01:40:24.001Z,935.85
2018-05-13T01:41:24.117Z,935.85
2018-05-13T01:42:24.032Z,935.86
2018-05-13T01:43:24.022Z,935.81
2018-05-13T01:44:24.058Z,935.82
2018-05-13T01:45:24.058Z,935.83
2018-05-13T01:46:24.216Z,935.86
2018-05-13T01:47:24.089Z,935.86
2018-05-13T01:48:24.100Z,935.81
2018-05-13T01:49:24.115Z,935.83
2018-05-13T01:50:24.121Z,935.81
2018-05-13T01:51:24.282Z,935.84
2018-05-13T01:52:24.179Z,935.84
2018-05-13T01:53:24.165Z,935.81
2018-05-13T01:54:24.179Z,935.81
2018-05-13T01:55:24.201Z,935.77
2018-05-13T01:56:24.338Z,935.81
2018-05-13T01:57:24.248Z,935.80
2018-05-13T01:58:24.243Z,935.80
2018-05-13T01:59:24.268Z,935.81
2018-05-13T02:00:24.279Z,935.82
2018-05-13T02:01:24.382Z,935.84
2018-05-13T02:02:24.324Z,935.81
2018-05-13T02:03:24.345Z,935.81
2018-05-13T02:04:24.355Z,935.85
2018-05-13T02:05:24.348Z,935.78
2018-05-13T02:06:24.458Z,935.77
2018-05-13T02:07:24.399Z,935.75
2018-05-13T02:08:24.394Z,935.77
2018-05-13T02:09:24.398Z,935.73
2018-05-13T02:10:24.413Z,935.72
2018-05-13T02:11:24.576Z,935.70
2018-05-13T02:12:24.451Z,935.73
2018-05-13T02:13:24.457Z,935.72
2018-05-13T02:14:24.471Z,935.72
2018-05-13T02:15:24.489Z,935.70
2018-05-13T02:16:24.505Z,935.70
2018-05-13T02:17:24.611Z,935.70
2018-05-13T02:18:24.560Z,935.68
2018-05-13T02:19:24.549Z,935.62
2018-05-13T02:20:24.562Z,935.63
2018-05-13T02:21:24.606Z,935.60
2018-05-13T02:22:24.723Z,935.61
2018-05-13T02:23:24.624Z,935.58
2018-05-13T02:24:24.617Z,935.58
2018-05-13T02:25:24.646Z,935.58
2018-05-13T02:26:24.674Z,935.62
2018-05-13T02:27:24.767Z,935.63
2018-05-13T02:28:24.681Z,935.62
2018-05-13T02:29:24.696Z,935.62
2018-05-13T02:30:24.703Z,935.63
2018-05-13T02:31:25.178Z,935.64
2018-05-13T02:32:25.458Z,935.60
2018-05-13T02:33:24.746Z,935.61
2018-05-13T02:34:24.788Z,935.61
2018-05-13T02:35:25.321Z,935.59
2018-05-13T02:36:24.800Z,935.60
2018-05-13T02:37:24.989Z,935.57
2018-05-13T02:38:24.850Z,935.55
2018-05-13T02:39:24.842Z,935.54
2018-05-13T02:40:24.883Z,935.54
2018-05-13T02:41:24.895Z,935.51
2018-05-13T02:42:24.992Z,935.51
2018-05-13T02:43:24.929Z,935.56
2018-05-13T02:44:24.951Z,935.55
2018-05-13T02:45:24.957Z,935.54
2018-05-13T02:46:24.944Z,935.53
2018-05-13T02:47:25.058Z,935.53
2018-05-13T02:48:25.001Z,935.54
2018-05-13T02:49:24.992Z,935.49
2018-05-13T02:50:25.004Z,935.48
2018-05-13T02:51:25.033Z,935.45
2018-05-13T02:52:25.135Z,935.43
2018-05-13T02:53:25.078Z,935.46
2018-05-13T02:54:25.060Z,935.43
2018-05-13T02:55:25.074Z,935.44
2018-05-13T02:56:25.105Z,935.39
2018-05-13T02:57:25.255Z,935.42
2018-05-13T02:58:25.144Z,935.38
2018-05-13T02:59:25.162Z,935.42
2018-05-13T03:00:25.161Z,935.42
2018-05-13T03:01:25.164Z,935.42
2018-05-13T03:02:25.331Z,935.37
2018-05-13T03:03:25.224Z,935.34
2018-05-13T03:04:25.211Z,935.39
2018-05-13T03:05:25.222Z,935.35
2018-05-13T03:06:25.249Z,935.35
2018-05-13T03:07:25.377Z,935.34
2018-05-13T03:08:25.266Z,935.36
2018-05-13T03:09:25.305Z,935.36
2018-05-13T03:10:25.306Z,935.35
2018-05-13T03:11:25.309Z,935.40
2018-05-13T03:12:25.451Z,935.33
2018-05-13T03:13:25.370Z,935.31
2018-05-13T03:14:25.407Z,935.29
2018-05-13T03:15:25.397Z,935.29
2018-05-13T03:16:25.379Z,935.29
2018-05-13T03:17:25.508Z,935.30
2018-05-13T03:18:25.437Z,935.29
2018-05-13T03:19:25.641Z,935.30
2018-05-13T03:20:25.445Z,935.28
2018-05-13T03:21:25.456Z,935.27
2018-05-13T03:22:25.470Z,935.24
2018-05-13T03:23:25.591Z,935.29
2018-05-13T03:24:25.525Z,935.31
2018-05-13T03:25:25.539Z,935.27
2018-05-13T03:26:25.528Z,935.30
2018-05-13T03:27:25.540Z,935.32
2018-05-13T03:28:25.735Z,935.30
2018-05-13T03:29:25.584Z,935.24
2018-05-13T03:30:25.612Z,935.28
2018-05-13T03:31:25.613Z,935.26
2018-05-13T03:32:25.616Z,935.29
2018-05-13T03:33:25.731Z,935.25
2018-05-13T03:34:25.640Z,935.30
2018-05-13T03:35:25.660Z,935.24
2018-05-13T03:36:25.683Z,935.26
2018-05-13T03:37:25.713Z,935.24
2018-05-13T03:38:25.833Z,935.28
2018-05-13T03:39:25.723Z,935.25
2018-05-13T03:40:25.762Z,935.22
2018-05-13T03:41:25.750Z,935.25
2018-05-13T03:42:25.789Z,935.22
2018-05-13T03:43:25.951Z,935.19
2018-05-13T03:44:25.815Z,935.18
2018-05-13T03:45:25.829Z,935.18
2018-05-13T03:46:25.817Z,935.17
2018-05-13T03:47:25.832Z,935.19
2018-05-13T03:48:25.996Z,935.19
2018-05-13T03:49:25.858Z,935.21
2018-05-13T03:50:25.884Z,935.17
2018-05-13T03:51:25.899Z,935.17
2018-05-13T03:52:25.930Z,935.19
2018-05-13T03:53:26.021Z,935.18
2018-05-13T03:54:25.950Z,935.19
2018-05-13T03:55:25.949Z,935.14
2018-05-13T03:56:25.965Z,935.16
2018-05-13T03:57:25.975Z,935.16
2018-05-13T03:58:26.116Z,935.18
2018-05-13T03:59:26.030Z,935.19
2018-05-13T04:00:26.048Z,935.21
2018-05-13T04:01:26.049Z,935.21
2018-05-13T04:02:26.047Z,935.23
2018-05-13T04:03:26.210Z,935.24
2018-05-13T04:04:26.105Z,935.22
2018-05-13T04:05:26.114Z,935.24
2018-05-13T04:06:26.120Z,935.28
2018-05-13T04:07:26.244Z,935.29
2018-05-13T04:08:26.283Z,935.27
2018-05-13T04:09:26.148Z,935.30
2018-05-13T04:10:26.171Z,935.30
2018-05-13T04:11:26.174Z,935.31
2018-05-13T04:12:26.190Z,935.32
2018-05-13T04:13:26.352Z,935.28
2018-05-13T04:14:26.246Z,935.29
2018-05-13T04:15:26.230Z,935.28
2018-05-13T04:16:26.256Z,935.25
2018-05-13T04:17:26.257Z,935.27
2018-05-13T04:18:26.398Z,935.27
2018-05-13T04:19:26.312Z,935.24
2018-05-13T04:20:26.300Z,935.25
2018-05-13T04:21:26.313Z,935.23
2018-05-13T04:22:26.331Z,935.22
2018-05-13T04:23:26.440Z,935.21
2018-05-13T04:24:26.381Z,935.24
2018-05-13T04:25:26.372Z,935.22
2018-05-13T04:26:26.383Z,935.26
2018-05-13T04:27:27.210Z,935.23
2018-05-13T04:28:27.523Z,935.24
2018-05-13T04:29:27.235Z,935.27
2018-05-13T04:30:39.809Z,935.26
2018-05-13T04:31:28.498Z,935.28
2018-05-13T04:32:27.591Z,935.26
2018-05-13T04:34:27.205Z,935.19
2018-05-13T04:35:27.097Z,935.26
2018-05-13T04:36:27.868Z,935.26
2018-05-13T04:37:27.161Z,935.23
2018-05-13T04:38:27.176Z,935.22
2018-05-13T04:39:26.707Z,935.26
2018-05-13T04:40:27.175Z,935.23
2018-05-13T04:41:27.378Z,935.25
2018-05-13T04:42:26.625Z,935.22
2018-05-13T04:43:26.800Z,935.27
2018-05-13T04:44:26.846Z,935.26
2018-05-13T04:45:27.469Z,935.27
2018-05-13T04:46:27.154Z,935.29
2018-05-13T04:47:26.696Z,935.21
2018-05-13T04:48:27.186Z,935.20
2018-05-13T04:49:27.372Z,935.21
2018-05-13T04:52:26.773Z,935.18
2018-05-13T04:53:26.787Z,935.15
2018-05-13T04:54:26.901Z,935.17
2018-05-13T04:55:26.791Z,935.17
2018-05-13T04:56:26.804Z,935.17
2018-05-13T04:57:29.580Z,935.14
2018-05-13T04:59:28.933Z,935.12
2018-05-13T05:00:27.783Z,935.14
2018-05-13T05:01:27.480Z,935.12
2018-05-13T05:03:28.146Z,935.13
2018-05-13T05:04:27.675Z,935.14
2018-05-13T05:05:31.282Z,935.11
2018-05-13T05:08:04.182Z,935.10
2018-05-13T05:08:26.971Z,935.13
2018-05-13T05:11:27.621Z,935.09
2018-05-13T05:12:27.848Z,935.08
2018-05-13T05:13:28.275Z,935.06
2018-05-13T05:15:27.997Z,935.02
2018-05-13T05:16:27.629Z,935.05
2018-05-13T05:17:27.778Z,935.08
2018-05-13T05:18:27.620Z,935.12
2018-05-13T05:19:28.192Z,935.08
2018-05-13T05:20:27.665Z,935.11
2018-05-13T05:21:27.650Z,935.14
2018-05-13T05:22:27.666Z,935.13
2018-05-13T05:23:27.377Z,935.15
2018-05-13T05:24:27.804Z,935.14
2018-05-13T05:25:27.711Z,935.14
2018-05-13T05:26:27.256Z,935.07
2018-05-13T05:27:28.070Z,935.09
2018-05-13T05:29:31.319Z,935.07
2018-05-13T05:31:27.303Z,935.14
2018-05-13T05:32:29.718Z,935.12
2018-05-13T05:33:28.472Z,935.14
2018-05-13T05:35:30.996Z,935.09
2018-05-13T05:36:28.184Z,935.10
2018-05-13T05:37:31.026Z,935.07
2018-05-13T05:38:29.433Z,935.08
2018-05-13T05:40:01.235Z,935.07
2018-05-13T05:40:28.074Z,935.08
2018-05-13T05:42:28.241Z,935.12
2018-05-13T05:43:27.507Z,935.07
2018-05-13T05:44:27.506Z,935.09
2018-05-13T05:46:28.735Z,935.07
2018-05-13T05:48:27.668Z,935.07
2018-05-13T05:49:27.589Z,935.04
2018-05-13T05:50:28.621Z,935.03
2018-05-13T05:51:29.090Z,935.09
2018-05-13T05:52:27.634Z,935.08
2018-05-13T05:53:27.645Z,935.08
2018-05-13T05:54:27.660Z,935.14
2018-05-13T05:55:27.803Z,935.12
2018-05-13T05:56:27.696Z,935.10
2018-05-13T05:59:27.706Z,935.00
2018-05-13T06:00:27.879Z,935.00
2018-05-13T06:01:27.761Z,934.99
2018-05-13T06:02:27.763Z,934.99
2018-05-13T06:03:27.764Z,934.97
2018-05-13T06:04:27.810Z,934.96
2018-05-13T06:05:27.920Z,934.98
2018-05-13T06:06:27.833Z,934.97
2018-05-13T06:07:27.849Z,934.97
2018-05-13T06:08:27.841Z,934.98
2018-05-13T06:09:27.851Z,934.95
2018-05-13T06:10:27.969Z,935.02
2018-05-13T06:11:27.891Z,934.93
2018-05-13T06:12:27.907Z,934.97
2018-05-13T06:13:27.913Z,934.96
2018-05-13T06:14:27.927Z,934.93
2018-05-13T06:15:28.064Z,934.91
2018-05-13T06:16:27.964Z,934.94
2018-05-13T06:17:27.966Z,934.93
2018-05-13T06:18:27.979Z,934.91
2018-05-13T06:19:27.995Z,934.91
2018-05-13T06:20:28.159Z,934.91
2018-05-13T06:21:28.018Z,934.92
2018-05-13T06:22:28.037Z,934.94
2018-05-13T06:23:28.082Z,934.95
2018-05-13T06:24:28.064Z,934.97
2018-05-13T06:25:28.181Z,934.99
2018-05-13T06:26:28.095Z,934.95
2018-05-13T06:27:28.111Z,934.94
2018-05-13T06:28:28.149Z,934.92
2018-05-13T06:29:28.139Z,934.94
2018-05-13T06:30:28.254Z,934.95
2018-05-13T06:31:28.194Z,934.96
2018-05-13T06:32:28.195Z,934.98
2018-05-13T06:33:28.209Z,934.96
2018-05-13T06:34:28.239Z,934.95
2018-05-13T06:35:28.350Z,934.98
2018-05-13T06:36:28.243Z,934.96
2018-05-13T06:37:28.279Z,934.95
2018-05-13T06:38:28.268Z,934.95
2018-05-13T06:39:28.308Z,934.93
2018-05-13T06:40:28.463Z,934.91
2018-05-13T06:43:28.365Z,934.92
2018-05-13T06:44:28.380Z,934.89
2018-05-13T06:45:28.396Z,934.89
2018-05-13T06:47:29.204Z,934.88
2018-05-13T06:48:28.412Z,934.83
2018-05-13T06:49:41.796Z,934.80
2018-05-13T06:51:28.597Z,934.82
2018-05-13T06:52:28.481Z,934.81
2018-05-13T06:53:28.486Z,934.80
2018-05-13T06:54:28.522Z,934.80
2018-05-13T06:55:28.538Z,934.83
2018-05-13T06:56:28.656Z,934.78
2018-05-13T06:57:28.539Z,934.80
2018-05-13T06:58:28.566Z,934.84
2018-05-13T06:59:28.594Z,934.81
2018-05-13T07:00:28.612Z,934.80
2018-05-13T07:01:28.705Z,934.89
2018-05-13T07:02:29.154Z,934.86
2018-05-13T07:03:28.654Z,934.87
2018-05-13T07:04:28.640Z,934.88
2018-05-13T07:05:28.662Z,934.85
2018-05-13T07:06:28.817Z,934.88
2018-05-13T07:07:28.682Z,934.83
2018-05-13T07:08:28.697Z,934.81
2018-05-13T07:09:28.739Z,934.81
2018-05-13T07:10:28.804Z,934.79
2018-05-13T07:11:28.890Z,934.78
2018-05-13T07:12:28.783Z,934.83
2018-05-13T07:13:28.766Z,934.83
2018-05-13T07:14:28.807Z,934.82
2018-05-13T07:15:28.799Z,934.81
2018-05-13T07:16:55.192Z,934.79
2018-05-13T07:18:28.837Z,934.84
2018-05-13T07:19:28.852Z,934.85
2018-05-13T07:20:28.862Z,934.85
2018-05-13T07:21:29.045Z,934.82
2018-05-13T07:22:28.924Z,934.84
2018-05-13T07:23:28.909Z,934.81
2018-05-13T07:24:28.923Z,934.80
2018-05-13T07:25:28.937Z,934.82
2018-05-13T07:26:29.085Z,934.82
2018-05-13T07:27:28.962Z,934.87
2018-05-13T07:28:28.985Z,934.87
2018-05-13T07:29:28.997Z,934.91
2018-05-13T07:30:29.012Z,934.94
2018-05-13T07:31:29.173Z,934.94
2018-05-13T07:32:29.039Z,934.96
2018-05-13T07:33:29.050Z,934.95
2018-05-13T07:34:29.090Z,935.00
2018-05-13T07:35:29.105Z,934.97
2018-05-13T07:36:29.260Z,934.99
2018-05-13T07:37:29.108Z,934.96
2018-05-13T07:38:29.151Z,934.97
2018-05-13T07:39:29.169Z,934.92
2018-05-13T07:41:29.277Z,934.91
2018-05-13T07:42:29.203Z,934.93
2018-05-13T07:43:29.248Z,934.92
2018-05-13T07:44:29.207Z,934.98
2018-05-13T07:45:29.232Z,934.95
2018-05-13T07:46:29.411Z,934.99
2018-05-13T07:47:29.249Z,934.99
2018-05-13T07:48:29.292Z,934.99
2018-05-13T07:49:29.279Z,934.97
2018-05-13T07:50:29.293Z,934.98
2018-05-13T07:51:29.469Z,935.02
2018-05-13T07:52:29.321Z,935.02
2018-05-13T07:53:29.542Z,935.01
2018-05-13T07:54:29.353Z,935.00
2018-05-13T07:55:30.338Z,935.02
2018-05-13T07:56:29.377Z,935.02
2018-05-13T07:57:29.540Z,934.99
2018-05-13T07:58:30.008Z,935.01
2018-05-13T07:59:29.421Z,934.99
2018-05-13T08:00:29.437Z,935.01
2018-05-13T08:01:29.447Z,934.98
2018-05-13T08:02:29.628Z,935.02
2018-05-13T08:03:29.503Z,935.04
2018-05-13T08:04:29.496Z,935.02
2018-05-13T08:05:29.505Z,935.02
2018-05-13T08:06:29.545Z,935.03
2018-05-13T08:07:29.686Z,935.08
2018-05-13T08:08:29.550Z,935.06
2018-05-13T08:09:29.588Z,935.08
2018-05-13T08:10:29.576Z,935.05
2018-05-13T08:11:29.595Z,935.09
2018-05-13T08:12:29.752Z,935.06
2018-05-13T08:13:29.625Z,935.07
2018-05-13T08:14:29.647Z,935.05
2018-05-13T08:15:29.651Z,935.11
2018-05-13T08:16:29.659Z,935.10
2018-05-13T08:17:29.802Z,935.09
2018-05-13T08:18:29.700Z,935.18
2018-05-13T08:19:29.705Z,935.17
2018-05-13T08:20:29.744Z,935.16
2018-05-13T08:21:29.741Z,935.18
2018-05-13T08:22:29.872Z,935.16
2018-05-13T08:23:29.788Z,935.19
2018-05-13T08:24:29.777Z,935.19
2018-05-13T08:25:29.794Z,935.23
2018-05-13T08:26:29.813Z,935.20
2018-05-13T08:27:29.970Z,935.22
2018-05-13T08:28:29.863Z,935.21
2018-05-13T08:29:29.851Z,935.25
2018-05-13T08:30:29.887Z,935.24
2018-05-13T08:31:29.873Z,935.25
2018-05-13T08:32:30.007Z,935.29
2018-05-13T08:33:29.908Z,935.30
2018-05-13T08:34:29.944Z,935.29
2018-05-13T08:35:29.937Z,935.34
2018-05-13T08:36:29.959Z,935.31
2018-05-13T08:37:30.110Z,935.36
2018-05-13T08:38:30.000Z,935.35
2018-05-13T08:39:30.002Z,935.35
2018-05-13T08:40:30.033Z,935.36
2018-05-13T08:41:30.028Z,935.37
2018-05-13T08:42:30.195Z,935.43
2018-05-13T08:43:30.046Z,935.46
2018-05-13T08:44:30.058Z,935.48
2018-05-13T08:45:30.075Z,935.50
2018-05-13T08:46:30.114Z,935.51
2018-05-13T08:47:30.196Z,935.54
2018-05-13T08:48:30.160Z,935.62
2018-05-13T08:49:30.156Z,935.59
2018-05-13T08:50:30.170Z,935.62
2018-05-13T08:51:30.158Z,935.69
2018-05-13T08:52:30.321Z,935.67
2018-05-13T08:53:30.212Z,935.70
2018-05-13T08:54:30.209Z,935.67
2018-05-13T08:55:30.226Z,935.65
2018-05-13T08:56:30.259Z,935.63
2018-05-13T08:57:30.397Z,935.64
2018-05-13T08:58:30.264Z,935.66
2018-05-13T08:59:30.268Z,935.64
2018-05-13T09:00:30.299Z,935.64
2018-05-13T09:01:30.300Z,935.68
2018-05-13T09:02:30.343Z,935.70
2018-05-13T09:03:30.453Z,935.66
2018-05-13T09:04:30.366Z,935.66
2018-05-13T09:05:30.384Z,935.69
2018-05-13T09:06:30.373Z,935.68
2018-05-13T09:07:30.396Z,935.72
2018-05-13T09:08:30.463Z,935.72
2018-05-13T09:09:30.524Z,935.74
2018-05-13T09:10:30.533Z,935.75
2018-05-13T09:11:30.465Z,935.73
2018-05-13T09:12:30.453Z,935.74
2018-05-13T09:13:30.503Z,935.74
2018-05-13T09:14:30.805Z,935.72
2018-05-13T09:15:30.505Z,935.68
2018-05-13T09:16:30.540Z,935.65
2018-05-13T09:17:30.522Z,935.69
2018-05-13T09:18:30.536Z,935.67
2018-05-13T09:19:30.667Z,935.69
2018-05-13T09:20:30.603Z,935.75
2018-05-13T09:21:30.604Z,935.79
2018-05-13T09:22:30.632Z,935.80
2018-05-13T09:23:30.633Z,935.82
2018-05-13T09:24:30.801Z,935.85
2018-05-13T09:25:30.652Z,935.85
2018-05-13T09:26:30.718Z,935.87
2018-05-13T09:27:32.295Z,935.86
2018-05-13T09:28:31.555Z,935.87
2018-05-13T09:29:30.844Z,935.94
2018-05-13T09:30:31.324Z,936.01
2018-05-13T09:31:31.491Z,935.99
2018-05-13T09:33:30.746Z,936.00
2018-05-13T09:34:30.870Z,936.05
2018-05-13T09:35:30.800Z,936.06
2018-05-13T09:38:32.228Z,936.09
2018-05-13T09:39:31.053Z,936.06
2018-05-13T09:40:30.842Z,936.03
2018-05-13T09:41:30.884Z,936.05
2018-05-13T09:42:30.902Z,936.05
2018-05-13T09:43:30.911Z,936.09
2018-05-13T09:44:31.109Z,936.12
2018-05-13T09:46:31.766Z,936.14
2018-05-13T09:47:30.954Z,936.12
2018-05-13T09:48:30.965Z,936.16
2018-05-13T09:49:31.095Z,936.22
2018-05-13T09:50:31.010Z,936.25
2018-05-13T09:51:30.997Z,936.23
2018-05-13T09:52:31.021Z,936.27
2018-05-13T09:53:31.051Z,936.27
2018-05-13T09:54:31.135Z,936.31
2018-05-13T09:55:31.862Z,936.33
2018-05-13T09:56:50.873Z,936.31
2018-05-13T09:57:31.150Z,936.31
2018-05-13T09:58:31.096Z,936.34
2018-05-13T09:59:33.304Z,936.35
2018-05-13T10:00:31.150Z,936.39
2018-05-13T10:01:31.137Z,936.38
2018-05-13T10:05:33.631Z,936.44
2018-05-13T10:06:31.234Z,936.43
2018-05-13T10:07:31.249Z,936.45
2018-05-13T10:08:35.181Z,936.46
2018-05-13T10:09:32.404Z,936.53
2018-05-13T10:10:31.262Z,936.56
2018-05-13T10:11:32.172Z,936.55
2018-05-13T10:13:31.314Z,936.56
2018-05-13T10:14:31.346Z,936.61
2018-05-13T10:15:31.459Z,936.67
2018-05-13T10:16:31.346Z,936.62
2018-05-13T10:17:31.387Z,936.65
2018-05-13T10:18:31.389Z,936.61
2018-05-13T10:19:31.430Z,936.68
2018-05-13T10:20:31.554Z,936.68
2018-05-13T10:21:31.446Z,936.69
2018-05-13T10:22:31.431Z,936.70
2018-05-13T10:23:31.476Z,936.72
2018-05-13T10:24:31.460Z,936.74
2018-05-13T10:25:31.623Z,936.75
2018-05-13T10:26:31.487Z,936.77
2018-05-13T10:27:31.503Z,936.75
2018-05-13T10:28:31.517Z,936.84
2018-05-13T10:29:31.529Z,936.80
2018-05-13T10:30:31.719Z,936.85
2018-05-13T10:31:31.558Z,936.83
2018-05-13T10:32:31.572Z,936.84
2018-05-13T10:33:31.587Z,936.81
2018-05-13T10:34:31.614Z,936.82
2018-05-13T10:35:33.027Z,936.84
2018-05-13T10:36:31.642Z,936.80
2018-05-13T10:37:31.659Z,936.85
2018-05-13T10:40:31.814Z,936.90
2018-05-13T10:42:31.796Z,936.86
2018-05-13T10:44:31.744Z,936.82
2018-05-13T10:45:33.208Z,936.88
2018-05-13T10:46:32.578Z,936.86
2018-05-13T10:47:31.795Z,936.90
2018-05-13T10:48:31.815Z,936.92
2018-05-13T10:49:33.061Z,936.96
2018-05-13T10:50:32.534Z,936.96
2018-05-13T10:52:32.463Z,936.96
2018-05-13T10:53:32.693Z,937.04
2018-05-13T10:54:31.887Z,937.00
2018-05-13T10:55:33.083Z,937.04
2018-05-13T10:56:39.080Z,937.07
2018-05-13T10:57:31.934Z,937.09
2018-05-13T10:58:31.949Z,937.11
2018-05-13T10:59:31.977Z,937.14
2018-05-13T11:01:32.868Z,937.14
2018-05-13T11:02:34.026Z,937.18
2018-05-13T11:03:32.019Z,937.20
2018-05-13T11:04:35.671Z,937.20
2018-05-13T11:05:32.146Z,937.21
2018-05-13T11:06:32.670Z,937.21
2018-05-13T11:07:35.716Z,937.24
2018-05-13T11:08:33.302Z,937.22
2018-05-13T11:10:32.247Z,937.22
2018-05-13T11:11:32.140Z,937.20
2018-05-13T11:12:35.197Z,937.18
2018-05-13T11:13:32.167Z,937.19
2018-05-13T11:14:32.211Z,937.21
2018-05-13T11:15:32.339Z,937.23
2018-05-13T11:17:32.222Z,937.21
2018-05-13T11:18:32.267Z,937.25
2018-05-13T11:19:32.264Z,937.21
2018-05-13T11:21:32.286Z,937.25
2018-05-13T11:22:32.330Z,937.27
2018-05-13T11:23:32.328Z,937.27
2018-05-13T11:24:33.220Z,937.27
2018-05-13T11:25:32.348Z,937.33
2018-05-13T11:26:32.487Z,937.34
2018-05-13T11:27:32.393Z,937.36
2018-05-13T11:28:32.417Z,937.36
2018-05-13T11:29:32.417Z,937.39
2018-05-13T11:30:32.418Z,937.39
2018-05-13T11:31:32.536Z,937.41
2018-05-13T11:32:32.451Z,937.41
2018-05-13T11:33:32.491Z,937.40
2018-05-13T11:34:32.507Z,937.43
2018-05-13T11:35:32.496Z,937.46
2018-05-13T11:36:32.612Z,937.47
2018-05-13T11:37:32.560Z,937.45
2018-05-13T11:38:32.566Z,937.45
2018-05-13T11:39:32.560Z,937.46
2018-05-13T11:40:32.597Z,937.43
2018-05-13T11:41:34.220Z,937.46
2018-05-13T11:42:35.204Z,937.47
2018-05-13T11:43:33.293Z,937.47
2018-05-13T11:44:32.642Z,937.51
2018-05-13T11:45:32.644Z,937.49
2018-05-13T11:46:32.786Z,937.53
2018-05-13T11:47:32.672Z,937.53
2018-05-13T11:48:32.699Z,937.56
2018-05-13T11:49:32.730Z,937.56
2018-05-13T11:50:39.909Z,937.60
2018-05-13T11:51:34.051Z,937.59
2018-05-13T11:53:33.274Z,937.66
2018-05-13T11:54:32.780Z,937.65
2018-05-13T11:55:32.821Z,937.67
2018-05-13T11:56:33.054Z,937.65
2018-05-13T11:57:32.824Z,937.69
2018-05-13T11:58:32.855Z,937.65
2018-05-13T11:59:32.884Z,937.67
2018-05-13T12:00:32.864Z,937.69
2018-05-13T12:01:33.035Z,937.65
2018-05-13T12:02:32.949Z,937.69
2018-05-13T12:03:32.911Z,937.68
2018-05-13T12:04:32.930Z,937.67
2018-05-13T12:05:32.947Z,937.71
2018-05-13T12:06:33.115Z,937.73
2018-05-13T12:07:33.003Z,937.74
2018-05-13T12:08:32.993Z,937.71
2018-05-13T12:09:33.002Z,937.74
2018-05-13T12:10:33.047Z,937.71
2018-05-13T12:11:33.192Z,937.68
2018-05-13T12:12:33.053Z,937.68
2018-05-13T12:13:33.070Z,937.69
2018-05-13T12:14:33.097Z,937.70
2018-05-13T12:15:33.100Z,937.64
2018-05-13T12:16:33.240Z,937.69
2018-05-13T12:17:33.159Z,937.68
2018-05-13T12:18:33.145Z,937.70
2018-05-13T12:19:33.175Z,937.69
2018-05-13T12:20:33.203Z,937.70
2018-05-13T12:21:33.292Z,937.73
2018-05-13T12:22:33.234Z,937.75
2018-05-13T12:23:33.249Z,937.79
2018-05-13T12:24:33.237Z,937.78
2018-05-13T12:25:33.256Z,937.81
2018-05-13T12:26:33.377Z,937.79
2018-05-13T12:27:33.297Z,937.80
2018-05-13T12:28:33.309Z,937.83
2018-05-13T12:29:33.322Z,937.88
2018-05-13T12:30:33.363Z,937.87
2018-05-13T12:31:33.531Z,937.87
2018-05-13T12:32:33.372Z,937.90
2018-05-13T12:33:33.387Z,937.93
2018-05-13T12:34:33.435Z,937.95
2018-05-13T12:35:33.430Z,937.95
2018-05-13T12:36:33.623Z,937.99
2018-05-13T12:37:33.484Z,937.97
2018-05-13T12:38:35.490Z,937.93
2018-05-13T12:39:34.408Z,937.96
2018-05-13T12:40:33.519Z,937.94
2018-05-13T12:41:33.694Z,937.99
2018-05-13T12:42:34.064Z,937.95
2018-05-13T12:44:34.577Z,937.93
2018-05-13T12:45:33.584Z,937.92
2018-05-13T12:46:33.728Z,937.98
2018-05-13T12:47:33.638Z,937.98
2018-05-13T12:48:33.644Z,937.96
2018-05-13T12:49:33.657Z,937.93
2018-05-13T12:50:33.675Z,937.91
2018-05-13T12:51:33.794Z,937.86
2018-05-13T12:52:33.739Z,937.92
2018-05-13T12:53:34.512Z,937.95
2018-05-13T12:55:33.779Z,937.97
2018-05-13T12:56:33.912Z,937.93
2018-05-13T12:57:33.811Z,938.01
2018-05-13T12:58:33.945Z,937.95
2018-05-13T12:59:33.843Z,937.94
2018-05-13T13:00:33.882Z,937.94
2018-05-13T13:01:34.900Z,937.93
2018-05-13T13:02:34.496Z,937.95
2018-05-13T13:03:33.936Z,937.93
2018-05-13T13:05:36.245Z,937.92
2018-05-13T13:07:34.001Z,937.92
2018-05-13T13:09:34.706Z,937.94
2018-05-13T13:10:35.567Z,937.89
2018-05-13T13:11:47.838Z,937.91
2018-05-13T13:12:41.268Z,937.85
2018-05-13T13:13:34.095Z,937.88
2018-05-13T13:14:38.144Z,937.86